sensor_id;sensor_type;location;lat;lon;timestamp;P1;durP1;ratioP1;P2;durP2;ratioP2
15990;SDS011;8100;50.994;4.538;2023-04-24T00:01:26;11.43;;;6.78;;
15990;SDS011;8100;50.994;4.538;2023-04-24T00:04:14;12.32;;;6.43;;
15990;SDS011;8100;50.994;4.538;2023-04-24T00:07:03;12.30;;;6.15;;
15990;SDS011;8100;50.994;4.538;2023-04-24T00:09:52;14.93;;;6.43;;
15990;SDS011;8100;50.994;4.538;2023-04-24T00:12:39;12.02;;;6.85;;
15990;SDS011;8100;50.994;4.538;2023-04-24T00:15:27;13.20;;;6.68;;
15990;SDS011;8100;50.994;4.538;2023-04-24T00:18:14;13.70;;;6.70;;
15990;SDS011;8100;50.994;4.538;2023-04-24T00:21:01;10.63;;;6.80;;
15990;SDS011;8100;50.994;4.538;2023-04-24T00:23:50;14.40;;;7.20;;
15990;SDS011;8100;50.994;4.538;2023-04-24T00:26:38;12.52;;;6.60;;
15990;SDS011;8100;50.994;4.538;2023-04-24T00:29:25;10.20;;;6.10;;
15990;SDS011;8100;50.994;4.538;2023-04-24T00:32:13;12.00;;;6.65;;
15990;SDS011;8100;50.994;4.538;2023-04-24T00:35:01;12.82;;;6.85;;
15990;SDS011;8100;50.994;4.538;2023-04-24T00:37:48;12.38;;;6.43;;
15990;SDS011;8100;50.994;4.538;2023-04-24T00:40:37;10.38;;;6.57;;
15990;SDS011;8100;50.994;4.538;2023-04-24T00:43:25;11.85;;;6.60;;
15990;SDS011;8100;50.994;4.538;2023-04-24T00:46:12;11.23;;;6.63;;
15990;SDS011;8100;50.994;4.538;2023-04-24T00:49:00;10.30;;;6.20;;
15990;SDS011;8100;50.994;4.538;2023-04-24T00:51:49;15.38;;;7.25;;
15990;SDS011;8100;50.994;4.538;2023-04-24T00:54:36;9.88;;;6.22;;
15990;SDS011;8100;50.994;4.538;2023-04-24T00:57:25;11.80;;;6.03;;
15990;SDS011;8100;50.994;4.538;2023-04-24T01:00:13;14.00;;;6.53;;
15990;SDS011;8100;50.994;4.538;2023-04-24T01:03:01;12.77;;;6.82;;
15990;SDS011;8100;50.994;4.538;2023-04-24T01:05:52;10.43;;;6.53;;
15990;SDS011;8100;50.994;4.538;2023-04-24T01:08:41;9.43;;;6.10;;
15990;SDS011;8100;50.994;4.538;2023-04-24T01:11:30;10.88;;;5.82;;
15990;SDS011;8100;50.994;4.538;2023-04-24T01:14:19;12.38;;;5.97;;
15990;SDS011;8100;50.994;4.538;2023-04-24T01:17:07;11.20;;;5.78;;
15990;SDS011;8100;50.994;4.538;2023-04-24T01:19:54;9.77;;;6.05;;
15990;SDS011;8100;50.994;4.538;2023-04-24T01:22:44;14.65;;;6.40;;
15990;SDS011;8100;50.994;4.538;2023-04-24T01:25:31;11.77;;;6.45;;
15990;SDS011;8100;50.994;4.538;2023-04-24T01:28:19;12.82;;;6.85;;
15990;SDS011;8100;50.994;4.538;2023-04-24T01:31:07;11.73;;;6.40;;
15990;SDS011;8100;50.994;4.538;2023-04-24T01:33:55;9.07;;;5.80;;
15990;SDS011;8100;50.994;4.538;2023-04-24T01:36:43;8.55;;;5.68;;
15990;SDS011;8100;50.994;4.538;2023-04-24T01:39:33;11.88;;;6.07;;
15990;SDS011;8100;50.994;4.538;2023-04-24T01:42:21;14.00;;;6.57;;
15990;SDS011;8100;50.994;4.538;2023-04-24T01:45:10;11.23;;;6.05;;
15990;SDS011;8100;50.994;4.538;2023-04-24T01:47:59;9.38;;;6.07;;
15990;SDS011;8100;50.994;4.538;2023-04-24T01:50:47;10.73;;;5.88;;
15990;SDS011;8100;50.994;4.538;2023-04-24T01:53:34;13.43;;;6.38;;
15990;SDS011;8100;50.994;4.538;2023-04-24T01:56:23;10.25;;;5.95;;
15990;SDS011;8100;50.994;4.538;2023-04-24T01:59:12;8.95;;;5.60;;
15990;SDS011;8100;50.994;4.538;2023-04-24T02:02:00;12.48;;;5.38;;
15990;SDS011;8100;50.994;4.538;2023-04-24T02:04:47;10.45;;;5.75;;
15990;SDS011;8100;50.994;4.538;2023-04-24T02:07:35;9.63;;;5.13;;
15990;SDS011;8100;50.994;4.538;2023-04-24T02:10:22;11.75;;;5.18;;
15990;SDS011;8100;50.994;4.538;2023-04-24T02:13:12;9.13;;;5.13;;
15990;SDS011;8100;50.994;4.538;2023-04-24T02:15:59;8.77;;;5.05;;
15990;SDS011;8100;50.994;4.538;2023-04-24T02:18:46;8.38;;;4.60;;
15990;SDS011;8100;50.994;4.538;2023-04-24T02:21:34;6.38;;;4.78;;
15990;SDS011;8100;50.994;4.538;2023-04-24T02:24:21;6.38;;;4.35;;
15990;SDS011;8100;50.994;4.538;2023-04-24T02:27:08;7.63;;;4.10;;
15990;SDS011;8100;50.994;4.538;2023-04-24T02:29:58;6.20;;;4.10;;
15990;SDS011;8100;50.994;4.538;2023-04-24T02:32:46;7.30;;;4.05;;
15990;SDS011;8100;50.994;4.538;2023-04-24T02:35:33;6.20;;;4.13;;
15990;SDS011;8100;50.994;4.538;2023-04-24T02:38:20;8.70;;;4.28;;
15990;SDS011;8100;50.994;4.538;2023-04-24T02:41:07;6.07;;;4.47;;
15990;SDS011;8100;50.994;4.538;2023-04-24T02:43:55;10.13;;;4.28;;
15990;SDS011;8100;50.994;4.538;2023-04-24T02:46:43;7.60;;;4.57;;
15990;SDS011;8100;50.994;4.538;2023-04-24T02:49:31;6.88;;;4.70;;
15990;SDS011;8100;50.994;4.538;2023-04-24T02:52:18;5.88;;;4.63;;
15990;SDS011;8100;50.994;4.538;2023-04-24T02:55:06;5.43;;;4.25;;
15990;SDS011;8100;50.994;4.538;2023-04-24T02:57:54;5.88;;;4.28;;
15990;SDS011;8100;50.994;4.538;2023-04-24T03:00:41;9.43;;;4.55;;
15990;SDS011;8100;50.994;4.538;2023-04-24T03:03:30;7.22;;;4.25;;
15990;SDS011;8100;50.994;4.538;2023-04-24T03:06:17;6.88;;;4.50;;
15990;SDS011;8100;50.994;4.538;2023-04-24T03:09:06;6.68;;;4.40;;
15990;SDS011;8100;50.994;4.538;2023-04-24T03:11:54;9.07;;;4.50;;
15990;SDS011;8100;50.994;4.538;2023-04-24T03:14:42;7.47;;;4.40;;
15990;SDS011;8100;50.994;4.538;2023-04-24T03:17:29;8.15;;;4.57;;
15990;SDS011;8100;50.994;4.538;2023-04-24T03:20:17;8.77;;;5.00;;
15990;SDS011;8100;50.994;4.538;2023-04-24T03:23:05;8.75;;;4.28;;
15990;SDS011;8100;50.994;4.538;2023-04-24T03:25:52;7.82;;;4.57;;
15990;SDS011;8100;50.994;4.538;2023-04-24T03:28:40;8.65;;;4.70;;
15990;SDS011;8100;50.994;4.538;2023-04-24T03:31:27;7.38;;;4.50;;
15990;SDS011;8100;50.994;4.538;2023-04-24T03:34:15;8.77;;;4.50;;
15990;SDS011;8100;50.994;4.538;2023-04-24T03:37:03;7.15;;;4.75;;
15990;SDS011;8100;50.994;4.538;2023-04-24T03:39:51;7.53;;;4.32;;
15990;SDS011;8100;50.994;4.538;2023-04-24T03:42:38;5.93;;;3.65;;
15990;SDS011;8100;50.994;4.538;2023-04-24T03:45:25;8.13;;;4.07;;
15990;SDS011;8100;50.994;4.538;2023-04-24T03:48:13;4.97;;;3.40;;
15990;SDS011;8100;50.994;4.538;2023-04-24T03:51:00;6.70;;;3.10;;
15990;SDS011;8100;50.994;4.538;2023-04-24T03:53:49;5.18;;;3.70;;
15990;SDS011;8100;50.994;4.538;2023-04-24T03:56:36;5.40;;;3.45;;
15990;SDS011;8100;50.994;4.538;2023-04-24T03:59:24;4.40;;;2.95;;
15990;SDS011;8100;50.994;4.538;2023-04-24T04:02:11;4.07;;;3.20;;
15990;SDS011;8100;50.994;4.538;2023-04-24T04:04:58;4.40;;;2.80;;
15990;SDS011;8100;50.994;4.538;2023-04-24T04:07:45;5.20;;;3.30;;
15990;SDS011;8100;50.994;4.538;2023-04-24T04:10:34;5.50;;;3.10;;
15990;SDS011;8100;50.994;4.538;2023-04-24T04:13:21;6.35;;;3.63;;
15990;SDS011;8100;50.994;4.538;2023-04-24T04:16:09;5.13;;;2.78;;
15990;SDS011;8100;50.994;4.538;2023-04-24T04:18:56;3.80;;;2.70;;
15990;SDS011;8100;50.994;4.538;2023-04-24T04:21:44;4.10;;;2.83;;
15990;SDS011;8100;50.994;4.538;2023-04-24T04:24:36;3.78;;;2.85;;
15990;SDS011;8100;50.994;4.538;2023-04-24T04:27:24;4.72;;;3.05;;
15990;SDS011;8100;50.994;4.538;2023-04-24T04:30:12;6.43;;;3.42;;
15990;SDS011;8100;50.994;4.538;2023-04-24T04:33:00;4.53;;;2.80;;
15990;SDS011;8100;50.994;4.538;2023-04-24T04:35:48;4.25;;;2.80;;
15990;SDS011;8100;50.994;4.538;2023-04-24T04:38:35;4.13;;;3.10;;
15990;SDS011;8100;50.994;4.538;2023-04-24T04:41:22;4.43;;;3.03;;
15990;SDS011;8100;50.994;4.538;2023-04-24T04:44:11;4.45;;;3.03;;
15990;SDS011;8100;50.994;4.538;2023-04-24T04:46:59;4.50;;;3.17;;
15990;SDS011;8100;50.994;4.538;2023-04-24T04:49:50;6.57;;;3.97;;
15990;SDS011;8100;50.994;4.538;2023-04-24T04:52:38;6.43;;;3.80;;
15990;SDS011;8100;50.994;4.538;2023-04-24T04:55:25;8.95;;;5.07;;
15990;SDS011;8100;50.994;4.538;2023-04-24T04:58:12;10.05;;;5.53;;
15990;SDS011;8100;50.994;4.538;2023-04-24T05:01:01;8.55;;;5.53;;
15990;SDS011;8100;50.994;4.538;2023-04-24T05:03:48;10.45;;;5.72;;
15990;SDS011;8100;50.994;4.538;2023-04-24T05:06:36;8.20;;;5.43;;
15990;SDS011;8100;50.994;4.538;2023-04-24T05:09:23;9.68;;;5.28;;
15990;SDS011;8100;50.994;4.538;2023-04-24T05:12:12;9.00;;;5.10;;
15990;SDS011;8100;50.994;4.538;2023-04-24T05:15:00;10.02;;;5.22;;
15990;SDS011;8100;50.994;4.538;2023-04-24T05:17:48;7.70;;;5.10;;
15990;SDS011;8100;50.994;4.538;2023-04-24T05:20:36;9.15;;;5.00;;
15990;SDS011;8100;50.994;4.538;2023-04-24T05:23:23;6.90;;;4.60;;
15990;SDS011;8100;50.994;4.538;2023-04-24T05:26:10;6.68;;;4.35;;
15990;SDS011;8100;50.994;4.538;2023-04-24T05:28:58;7.28;;;4.22;;
15990;SDS011;8100;50.994;4.538;2023-04-24T05:31:45;9.15;;;4.60;;
15990;SDS011;8100;50.994;4.538;2023-04-24T05:34:34;9.27;;;4.72;;
15990;SDS011;8100;50.994;4.538;2023-04-24T05:37:21;7.97;;;4.50;;
15990;SDS011;8100;50.994;4.538;2023-04-24T05:40:09;8.77;;;4.97;;
15990;SDS011;8100;50.994;4.538;2023-04-24T05:42:57;8.18;;;4.55;;
15990;SDS011;8100;50.994;4.538;2023-04-24T05:45:44;8.43;;;5.03;;
15990;SDS011;8100;50.994;4.538;2023-04-24T05:48:31;11.32;;;5.10;;
15990;SDS011;8100;50.994;4.538;2023-04-24T05:51:20;8.45;;;4.85;;
15990;SDS011;8100;50.994;4.538;2023-04-24T05:54:07;10.63;;;5.13;;
15990;SDS011;8100;50.994;4.538;2023-04-24T05:56:57;8.50;;;4.60;;
15990;SDS011;8100;50.994;4.538;2023-04-24T05:59:44;9.50;;;4.95;;
15990;SDS011;8100;50.994;4.538;2023-04-24T06:02:32;8.40;;;4.53;;
15990;SDS011;8100;50.994;4.538;2023-04-24T06:05:19;8.20;;;4.65;;
15990;SDS011;8100;50.994;4.538;2023-04-24T06:08:07;8.65;;;5.20;;
15990;SDS011;8100;50.994;4.538;2023-04-24T06:10:56;6.95;;;4.70;;
15990;SDS011;8100;50.994;4.538;2023-04-24T06:13:43;8.85;;;4.50;;
15990;SDS011;8100;50.994;4.538;2023-04-24T06:16:31;8.02;;;4.40;;
15990;SDS011;8100;50.994;4.538;2023-04-24T06:19:18;7.47;;;4.32;;
15990;SDS011;8100;50.994;4.538;2023-04-24T06:22:05;5.75;;;3.72;;
15990;SDS011;8100;50.994;4.538;2023-04-24T06:24:54;5.95;;;4.18;;
15990;SDS011;8100;50.994;4.538;2023-04-24T06:27:41;7.88;;;4.55;;
15990;SDS011;8100;50.994;4.538;2023-04-24T06:30:28;10.35;;;5.40;;
15990;SDS011;8100;50.994;4.538;2023-04-24T06:33:16;7.10;;;4.82;;
15990;SDS011;8100;50.994;4.538;2023-04-24T06:36:03;8.82;;;5.45;;
15990;SDS011;8100;50.994;4.538;2023-04-24T06:38:51;9.85;;;5.60;;
15990;SDS011;8100;50.994;4.538;2023-04-24T06:41:40;10.07;;;5.57;;
15990;SDS011;8100;50.994;4.538;2023-04-24T06:44:27;9.00;;;5.30;;
15990;SDS011;8100;50.994;4.538;2023-04-24T06:47:15;11.23;;;5.65;;
15990;SDS011;8100;50.994;4.538;2023-04-24T06:50:04;11.80;;;5.95;;
15990;SDS011;8100;50.994;4.538;2023-04-24T06:52:52;11.98;;;5.90;;
15990;SDS011;8100;50.994;4.538;2023-04-24T06:55:39;9.02;;;5.68;;
15990;SDS011;8100;50.994;4.538;2023-04-24T06:58:30;9.32;;;6.10;;
15990;SDS011;8100;50.994;4.538;2023-04-24T07:01:17;10.52;;;6.05;;
15990;SDS011;8100;50.994;4.538;2023-04-24T07:04:04;9.00;;;5.97;;
15990;SDS011;8100;50.994;4.538;2023-04-24T07:06:52;10.43;;;5.63;;
15990;SDS011;8100;50.994;4.538;2023-04-24T07:09:41;11.40;;;5.72;;
15990;SDS011;8100;50.994;4.538;2023-04-24T07:12:29;11.35;;;5.80;;
15990;SDS011;8100;50.994;4.538;2023-04-24T07:15:19;10.65;;;6.03;;
15990;SDS011;8100;50.994;4.538;2023-04-24T07:18:06;13.23;;;5.70;;
15990;SDS011;8100;50.994;4.538;2023-04-24T07:20:53;11.55;;;5.30;;
15990;SDS011;8100;50.994;4.538;2023-04-24T07:23:41;10.48;;;4.78;;
15990;SDS011;8100;50.994;4.538;2023-04-24T07:26:29;9.85;;;4.70;;
15990;SDS011;8100;50.994;4.538;2023-04-24T07:29:17;11.60;;;4.32;;
15990;SDS011;8100;50.994;4.538;2023-04-24T07:32:06;10.32;;;4.35;;
15990;SDS011;8100;50.994;4.538;2023-04-24T07:34:54;8.60;;;4.22;;
15990;SDS011;8100;50.994;4.538;2023-04-24T07:37:41;9.43;;;4.10;;
15990;SDS011;8100;50.994;4.538;2023-04-24T07:40:31;10.40;;;4.22;;
15990;SDS011;8100;50.994;4.538;2023-04-24T07:43:19;8.43;;;3.00;;
15990;SDS011;8100;50.994;4.538;2023-04-24T07:46:07;7.03;;;3.33;;
15990;SDS011;8100;50.994;4.538;2023-04-24T07:48:56;8.38;;;3.10;;
15990;SDS011;8100;50.994;4.538;2023-04-24T07:51:44;6.60;;;2.97;;
15990;SDS011;8100;50.994;4.538;2023-04-24T07:54:32;6.88;;;2.75;;
15990;SDS011;8100;50.994;4.538;2023-04-24T07:57:19;5.25;;;2.35;;
15990;SDS011;8100;50.994;4.538;2023-04-24T08:00:07;6.85;;;2.38;;
15990;SDS011;8100;50.994;4.538;2023-04-24T08:02:55;6.40;;;2.30;;
15990;SDS011;8100;50.994;4.538;2023-04-24T08:05:44;6.38;;;2.38;;
15990;SDS011;8100;50.994;4.538;2023-04-24T08:08:31;8.65;;;2.47;;
15990;SDS011;8100;50.994;4.538;2023-04-24T08:11:18;8.35;;;2.92;;
15990;SDS011;8100;50.994;4.538;2023-04-24T08:14:06;7.75;;;2.67;;
15990;SDS011;8100;50.994;4.538;2023-04-24T08:16:53;7.75;;;3.25;;
15990;SDS011;8100;50.994;4.538;2023-04-24T08:19:41;9.73;;;3.72;;
15990;SDS011;8100;50.994;4.538;2023-04-24T08:22:35;9.68;;;3.88;;
15990;SDS011;8100;50.994;4.538;2023-04-24T08:25:22;9.45;;;3.92;;
15990;SDS011;8100;50.994;4.538;2023-04-24T08:28:10;8.18;;;3.92;;
15990;SDS011;8100;50.994;4.538;2023-04-24T08:30:57;6.57;;;3.47;;
15990;SDS011;8100;50.994;4.538;2023-04-24T08:33:44;12.73;;;3.20;;
15990;SDS011;8100;50.994;4.538;2023-04-24T08:36:32;7.93;;;3.50;;
15990;SDS011;8100;50.994;4.538;2023-04-24T08:39:21;7.80;;;3.20;;
15990;SDS011;8100;50.994;4.538;2023-04-24T08:42:09;10.35;;;3.72;;
15990;SDS011;8100;50.994;4.538;2023-04-24T08:44:59;8.48;;;3.75;;
15990;SDS011;8100;50.994;4.538;2023-04-24T08:47:47;7.90;;;3.58;;
15990;SDS011;8100;50.994;4.538;2023-04-24T08:50:35;9.90;;;3.33;;
15990;SDS011;8100;50.994;4.538;2023-04-24T08:53:23;11.25;;;4.05;;
15990;SDS011;8100;50.994;4.538;2023-04-24T08:56:13;8.25;;;3.35;;
15990;SDS011;8100;50.994;4.538;2023-04-24T08:59:01;8.93;;;3.33;;
15990;SDS011;8100;50.994;4.538;2023-04-24T09:01:48;10.82;;;3.03;;
15990;SDS011;8100;50.994;4.538;2023-04-24T09:04:38;11.35;;;2.53;;
15990;SDS011;8100;50.994;4.538;2023-04-24T09:07:27;8.45;;;2.60;;
15990;SDS011;8100;50.994;4.538;2023-04-24T09:10:16;8.38;;;2.95;;
15990;SDS011;8100;50.994;4.538;2023-04-24T09:13:05;9.00;;;3.22;;
15990;SDS011;8100;50.994;4.538;2023-04-24T09:15:54;8.85;;;2.88;;
15990;SDS011;8100;50.994;4.538;2023-04-24T09:18:42;9.63;;;3.00;;
15990;SDS011;8100;50.994;4.538;2023-04-24T09:21:31;6.70;;;2.88;;
15990;SDS011;8100;50.994;4.538;2023-04-24T09:24:20;8.50;;;2.78;;
15990;SDS011;8100;50.994;4.538;2023-04-24T09:27:10;7.38;;;2.83;;
15990;SDS011;8100;50.994;4.538;2023-04-24T09:30:01;6.57;;;3.10;;
15990;SDS011;8100;50.994;4.538;2023-04-24T09:32:49;8.45;;;3.10;;
15990;SDS011;8100;50.994;4.538;2023-04-24T09:35:40;7.97;;;3.25;;
15990;SDS011;8100;50.994;4.538;2023-04-24T09:38:33;8.10;;;3.05;;
15990;SDS011;8100;50.994;4.538;2023-04-24T09:41:21;11.18;;;3.45;;
15990;SDS011;8100;50.994;4.538;2023-04-24T09:44:10;6.05;;;3.00;;
15990;SDS011;8100;50.994;4.538;2023-04-24T09:47:00;8.95;;;3.20;;
15990;SDS011;8100;50.994;4.538;2023-04-24T09:49:47;11.30;;;3.35;;
15990;SDS011;8100;50.994;4.538;2023-04-24T09:52:34;9.18;;;3.67;;
15990;SDS011;8100;50.994;4.538;2023-04-24T09:55:22;7.00;;;3.08;;
15990;SDS011;8100;50.994;4.538;2023-04-24T09:58:09;10.75;;;3.00;;
15990;SDS011;8100;50.994;4.538;2023-04-24T10:00:57;5.55;;;2.40;;
15990;SDS011;8100;50.994;4.538;2023-04-24T10:03:45;6.63;;;2.45;;
15990;SDS011;8100;50.994;4.538;2023-04-24T10:06:33;5.18;;;2.50;;
15990;SDS011;8100;50.994;4.538;2023-04-24T10:09:21;3.78;;;2.13;;
15990;SDS011;8100;50.994;4.538;2023-04-24T10:12:10;5.63;;;2.38;;
15990;SDS011;8100;50.994;4.538;2023-04-24T10:14:58;8.35;;;2.38;;
15990;SDS011;8100;50.994;4.538;2023-04-24T10:17:47;6.15;;;2.25;;
15990;SDS011;8100;50.994;4.538;2023-04-24T10:20:39;6.70;;;2.90;;
15990;SDS011;8100;50.994;4.538;2023-04-24T10:23:27;10.45;;;2.67;;
15990;SDS011;8100;50.994;4.538;2023-04-24T10:26:15;6.50;;;2.38;;
15990;SDS011;8100;50.994;4.538;2023-04-24T10:29:04;7.88;;;2.45;;
15990;SDS011;8100;50.994;4.538;2023-04-24T10:31:55;7.45;;;2.53;;
15990;SDS011;8100;50.994;4.538;2023-04-24T10:34:42;5.90;;;2.47;;
15990;SDS011;8100;50.994;4.538;2023-04-24T10:37:31;6.30;;;2.80;;
15990;SDS011;8100;50.994;4.538;2023-04-24T10:40:25;8.43;;;3.10;;
15990;SDS011;8100;50.994;4.538;2023-04-24T10:43:16;4.25;;;2.30;;
15990;SDS011;8100;50.994;4.538;2023-04-24T10:46:05;6.72;;;2.35;;
15990;SDS011;8100;50.994;4.538;2023-04-24T10:48:53;7.65;;;2.35;;
15990;SDS011;8100;50.994;4.538;2023-04-24T10:51:45;7.95;;;2.30;;
15990;SDS011;8100;50.994;4.538;2023-04-24T10:54:35;4.95;;;2.25;;
15990;SDS011;8100;50.994;4.538;2023-04-24T10:57:27;4.47;;;1.92;;
15990;SDS011;8100;50.994;4.538;2023-04-24T11:00:18;5.25;;;2.15;;
15990;SDS011;8100;50.994;4.538;2023-04-24T11:03:09;7.72;;;2.28;;
15990;SDS011;8100;50.994;4.538;2023-04-24T11:06:10;9.15;;;2.45;;
15990;SDS011;8100;50.994;4.538;2023-04-24T11:09:03;5.63;;;2.60;;
15990;SDS011;8100;50.994;4.538;2023-04-24T11:12:02;5.68;;;2.35;;
15990;SDS011;8100;50.994;4.538;2023-04-24T11:14:59;5.93;;;2.20;;
15990;SDS011;8100;50.994;4.538;2023-04-24T11:17:47;5.20;;;2.28;;
15990;SDS011;8100;50.994;4.538;2023-04-24T11:20:36;8.85;;;3.05;;
15990;SDS011;8100;50.994;4.538;2023-04-24T11:23:28;4.55;;;1.95;;
15990;SDS011;8100;50.994;4.538;2023-04-24T11:26:22;6.57;;;2.20;;
15990;SDS011;8100;50.994;4.538;2023-04-24T11:29:17;8.73;;;2.13;;
15990;SDS011;8100;50.994;4.538;2023-04-24T11:32:17;7.50;;;2.33;;
15990;SDS011;8100;50.994;4.538;2023-04-24T11:35:13;5.03;;;2.20;;
15990;SDS011;8100;50.994;4.538;2023-04-24T11:38:02;4.78;;;2.40;;
15990;SDS011;8100;50.994;4.538;2023-04-24T11:40:51;5.13;;;2.60;;
15990;SDS011;8100;50.994;4.538;2023-04-24T11:43:38;4.50;;;2.60;;
15990;SDS011;8100;50.994;4.538;2023-04-24T11:46:28;5.72;;;2.40;;
15990;SDS011;8100;50.994;4.538;2023-04-24T11:49:17;5.93;;;2.78;;
15990;SDS011;8100;50.994;4.538;2023-04-24T11:52:04;6.72;;;2.40;;
15990;SDS011;8100;50.994;4.538;2023-04-24T11:54:52;6.80;;;2.10;;
15990;SDS011;8100;50.994;4.538;2023-04-24T11:57:40;9.68;;;2.50;;
15990;SDS011;8100;50.994;4.538;2023-04-24T12:00:30;5.10;;;2.45;;
15990;SDS011;8100;50.994;4.538;2023-04-24T12:03:21;8.88;;;2.83;;
15990;SDS011;8100;50.994;4.538;2023-04-24T12:06:08;6.15;;;2.40;;
15990;SDS011;8100;50.994;4.538;2023-04-24T12:08:57;4.97;;;2.60;;
15990;SDS011;8100;50.994;4.538;2023-04-24T12:11:52;4.63;;;2.45;;
15990;SDS011;8100;50.994;4.538;2023-04-24T12:17:45;6.75;;;2.50;;
15990;SDS011;8100;50.994;4.538;2023-04-24T12:20:35;5.18;;;2.45;;
15990;SDS011;8100;50.994;4.538;2023-04-24T12:26:24;3.30;;;2.40;;
15990;SDS011;8100;50.994;4.538;2023-04-24T12:29:19;5.45;;;2.75;;
15990;SDS011;8100;50.994;4.538;2023-04-24T12:32:15;9.05;;;3.08;;
15990;SDS011;8100;50.994;4.538;2023-04-24T12:35:04;7.10;;;2.40;;
15990;SDS011;8100;50.994;4.538;2023-04-24T12:37:53;5.60;;;2.67;;
15990;SDS011;8100;50.994;4.538;2023-04-24T12:40:41;5.07;;;2.25;;
15990;SDS011;8100;50.994;4.538;2023-04-24T12:43:30;4.32;;;2.30;;
15990;SDS011;8100;50.994;4.538;2023-04-24T12:46:17;6.88;;;2.42;;
15990;SDS011;8100;50.994;4.538;2023-04-24T12:49:05;5.82;;;2.67;;
15990;SDS011;8100;50.994;4.538;2023-04-24T12:51:52;8.60;;;2.40;;
15990;SDS011;8100;50.994;4.538;2023-04-24T12:54:41;7.13;;;2.53;;
15990;SDS011;8100;50.994;4.538;2023-04-24T12:57:30;5.40;;;2.53;;
15990;SDS011;8100;50.994;4.538;2023-04-24T13:00:17;5.47;;;2.45;;
15990;SDS011;8100;50.994;4.538;2023-04-24T13:03:05;6.65;;;2.60;;
15990;SDS011;8100;50.994;4.538;2023-04-24T13:05:52;6.47;;;2.30;;
15990;SDS011;8100;50.994;4.538;2023-04-24T13:08:39;5.32;;;2.38;;
15990;SDS011;8100;50.994;4.538;2023-04-24T13:11:28;4.50;;;2.20;;
15990;SDS011;8100;50.994;4.538;2023-04-24T13:14:15;5.57;;;2.42;;
15990;SDS011;8100;50.994;4.538;2023-04-24T13:17:03;6.20;;;2.30;;
15990;SDS011;8100;50.994;4.538;2023-04-24T13:19:50;4.00;;;1.90;;
15990;SDS011;8100;50.994;4.538;2023-04-24T13:22:40;4.22;;;2.10;;
15990;SDS011;8100;50.994;4.538;2023-04-24T13:25:27;5.07;;;2.20;;
15990;SDS011;8100;50.994;4.538;2023-04-24T13:28:18;3.05;;;2.13;;
15990;SDS011;8100;50.994;4.538;2023-04-24T13:31:05;4.40;;;2.00;;
15990;SDS011;8100;50.994;4.538;2023-04-24T13:33:53;3.83;;;1.80;;
15990;SDS011;8100;50.994;4.538;2023-04-24T13:36:40;3.72;;;1.70;;
15990;SDS011;8100;50.994;4.538;2023-04-24T13:39:27;5.32;;;1.80;;
15990;SDS011;8100;50.994;4.538;2023-04-24T13:42:15;4.10;;;1.80;;
15990;SDS011;8100;50.994;4.538;2023-04-24T13:45:04;5.68;;;2.03;;
15990;SDS011;8100;50.994;4.538;2023-04-24T13:47:52;3.30;;;1.60;;
15990;SDS011;8100;50.994;4.538;2023-04-24T13:50:40;3.88;;;1.33;;
15990;SDS011;8100;50.994;4.538;2023-04-24T13:53:27;4.05;;;1.50;;
15990;SDS011;8100;50.994;4.538;2023-04-24T13:56:14;6.97;;;1.90;;
15990;SDS011;8100;50.994;4.538;2023-04-24T13:59:02;3.08;;;1.67;;
15990;SDS011;8100;50.994;4.538;2023-04-24T14:01:50;3.45;;;1.70;;
15990;SDS011;8100;50.994;4.538;2023-04-24T14:04:38;3.90;;;2.00;;
15990;SDS011;8100;50.994;4.538;2023-04-24T14:07:25;5.72;;;1.98;;
15990;SDS011;8100;50.994;4.538;2023-04-24T14:10:12;3.80;;;1.85;;
15990;SDS011;8100;50.994;4.538;2023-04-24T14:13:00;4.20;;;1.98;;
15990;SDS011;8100;50.994;4.538;2023-04-24T14:15:47;3.13;;;2.05;;
15990;SDS011;8100;50.994;4.538;2023-04-24T14:18:36;5.90;;;2.25;;
15990;SDS011;8100;50.994;4.538;2023-04-24T14:21:23;4.47;;;2.25;;
15990;SDS011;8100;50.994;4.538;2023-04-24T14:24:10;4.70;;;1.88;;
15990;SDS011;8100;50.994;4.538;2023-04-24T14:26:58;4.22;;;1.80;;
15990;SDS011;8100;50.994;4.538;2023-04-24T14:29:45;4.85;;;2.58;;
15990;SDS011;8100;50.994;4.538;2023-04-24T14:32:33;3.60;;;2.33;;
15990;SDS011;8100;50.994;4.538;2023-04-24T14:35:22;4.10;;;2.50;;
15990;SDS011;8100;50.994;4.538;2023-04-24T14:38:09;2.90;;;1.98;;
15990;SDS011;8100;50.994;4.538;2023-04-24T14:40:57;3.78;;;1.52;;
15990;SDS011;8100;50.994;4.538;2023-04-24T14:43:44;3.28;;;1.58;;
15990;SDS011;8100;50.994;4.538;2023-04-24T14:46:31;5.05;;;1.40;;
15990;SDS011;8100;50.994;4.538;2023-04-24T14:49:19;2.67;;;1.30;;
15990;SDS011;8100;50.994;4.538;2023-04-24T14:52:08;3.33;;;1.10;;
15990;SDS011;8100;50.994;4.538;2023-04-24T14:54:55;3.38;;;1.10;;
15990;SDS011;8100;50.994;4.538;2023-04-24T14:57:42;2.30;;;1.05;;
15990;SDS011;8100;50.994;4.538;2023-04-24T15:00:29;1.27;;;0.90;;
15990;SDS011;8100;50.994;4.538;2023-04-24T15:03:18;3.13;;;1.23;;
15990;SDS011;8100;50.994;4.538;2023-04-24T15:06:05;4.13;;;1.10;;
15990;SDS011;8100;50.994;4.538;2023-04-24T15:08:54;3.30;;;1.10;;
15990;SDS011;8100;50.994;4.538;2023-04-24T15:11:41;2.67;;;1.10;;
15990;SDS011;8100;50.994;4.538;2023-04-24T15:14:29;2.90;;;1.20;;
15990;SDS011;8100;50.994;4.538;2023-04-24T15:17:16;3.90;;;1.33;;
15990;SDS011;8100;50.994;4.538;2023-04-24T15:20:04;3.47;;;1.15;;
15990;SDS011;8100;50.994;4.538;2023-04-24T15:22:53;2.80;;;1.15;;
15990;SDS011;8100;50.994;4.538;2023-04-24T15:25:41;3.38;;;1.15;;
15990;SDS011;8100;50.994;4.538;2023-04-24T15:28:29;5.93;;;1.45;;
15990;SDS011;8100;50.994;4.538;2023-04-24T15:31:16;3.03;;;1.48;;
15990;SDS011;8100;50.994;4.538;2023-04-24T15:34:03;4.13;;;1.50;;
15990;SDS011;8100;50.994;4.538;2023-04-24T15:36:51;3.78;;;1.30;;
15990;SDS011;8100;50.994;4.538;2023-04-24T15:39:38;2.75;;;1.00;;
15990;SDS011;8100;50.994;4.538;2023-04-24T15:42:27;2.97;;;1.35;;
15990;SDS011;8100;50.994;4.538;2023-04-24T15:45:14;2.75;;;1.42;;
15990;SDS011;8100;50.994;4.538;2023-04-24T15:48:01;1.83;;;1.20;;
15990;SDS011;8100;50.994;4.538;2023-04-24T15:50:49;4.10;;;1.40;;
15990;SDS011;8100;50.994;4.538;2023-04-24T15:53:36;3.08;;;1.10;;
15990;SDS011;8100;50.994;4.538;2023-04-24T15:56:23;1.67;;;1.05;;
15990;SDS011;8100;50.994;4.538;2023-04-24T15:59:12;1.33;;;1.13;;
15990;SDS011;8100;50.994;4.538;2023-04-24T16:01:59;2.38;;;1.33;;
15990;SDS011;8100;50.994;4.538;2023-04-24T16:04:48;4.70;;;1.10;;
15990;SDS011;8100;50.994;4.538;2023-04-24T16:07:36;4.63;;;1.35;;
15990;SDS011;8100;50.994;4.538;2023-04-24T16:10:25;2.47;;;1.30;;
15990;SDS011;8100;50.994;4.538;2023-04-24T16:13:12;2.25;;;1.30;;
15990;SDS011;8100;50.994;4.538;2023-04-24T16:16:01;4.60;;;1.40;;
15990;SDS011;8100;50.994;4.538;2023-04-24T16:18:48;4.03;;;1.25;;
15990;SDS011;8100;50.994;4.538;2023-04-24T16:21:38;4.82;;;1.15;;
15990;SDS011;8100;50.994;4.538;2023-04-24T16:24:25;5.05;;;1.30;;
15990;SDS011;8100;50.994;4.538;2023-04-24T16:27:13;3.50;;;1.20;;
15990;SDS011;8100;50.994;4.538;2023-04-24T16:30:01;3.65;;;1.52;;
15990;SDS011;8100;50.994;4.538;2023-04-24T16:32:50;2.05;;;1.30;;
15990;SDS011;8100;50.994;4.538;2023-04-24T16:35:37;3.55;;;1.98;;
15990;SDS011;8100;50.994;4.538;2023-04-24T16:38:25;3.10;;;1.60;;
15990;SDS011;8100;50.994;4.538;2023-04-24T16:41:12;3.88;;;1.48;;
15990;SDS011;8100;50.994;4.538;2023-04-24T16:43:59;4.50;;;1.40;;
15990;SDS011;8100;50.994;4.538;2023-04-24T16:46:47;4.47;;;1.67;;
15990;SDS011;8100;50.994;4.538;2023-04-24T16:49:35;3.42;;;1.38;;
15990;SDS011;8100;50.994;4.538;2023-04-24T16:52:23;5.88;;;1.55;;
15990;SDS011;8100;50.994;4.538;2023-04-24T16:55:10;2.75;;;1.20;;
15990;SDS011;8100;50.994;4.538;2023-04-24T16:57:57;1.90;;;1.30;;
15990;SDS011;8100;50.994;4.538;2023-04-24T17:00:45;3.75;;;1.50;;
15990;SDS011;8100;50.994;4.538;2023-04-24T17:03:33;2.40;;;1.30;;
15990;SDS011;8100;50.994;4.538;2023-04-24T17:06:21;3.63;;;1.40;;
15990;SDS011;8100;50.994;4.538;2023-04-24T17:09:09;2.08;;;1.00;;
15990;SDS011;8100;50.994;4.538;2023-04-24T17:11:57;3.30;;;1.27;;